METAR Data
IDs: Format: Raw Decoded Include TAF

Data at: 1422 UTC 10 Aug 2022

KPRB 101353Z AUTO 30005KT 10SM CLR 14/11 A3006 RMK AO2 SLP172 T01390111
KPRB 101253Z AUTO 32004KT 10SM CLR 14/11 A3004 RMK AO2 SLP166 T01390106
KPRB 101153Z AUTO 29005KT 10SM CLR 15/11 A3003 RMK AO2 SLP161 T01500111 10183 20150 53006
KPRB 101053Z AUTO 30007KT 10SM CLR 16/11 A3002 RMK AO2 SLP159 T01560111
KPRB 100953Z AUTO 31007KT 10SM CLR 16/11 A3002 RMK AO2 SLP155 T01560111
KPRB 100853Z AUTO 30009KT 10SM CLR 16/11 A3001 RMK AO2 SLP155 T01610111 50002
KPRB 100753Z AUTO 30009KT 10SM CLR 17/11 A3002 RMK AO2 SLP157 T01670106 403440156
KPRB 100653Z AUTO 31008KT 10SM CLR 17/11 A3002 RMK AO2 SLP158 T01720106
KPRB 100553Z AUTO 30010KT 10SM CLR 18/10 A3001 RMK AO2 SLP155 T01830100 10317 20183 51022
KPRB 100453Z AUTO 29012KT 10SM CLR 19/09 A2999 RMK AO2 SLP149 T01940094
KPRB 100353Z AUTO 30011KT 10SM SCT100 22/10 A2996 RMK AO2 SLP140 T02170100
KPRB 100253Z AUTO 25009KT 10SM CLR 24/09 A2994 RMK AO2 SLP132 T02440094 53014
KPRB 100153Z AUTO 19012KT 10SM CLR 27/09 A2992 RMK AO2 SLP123 T02670094
KPRB 100053Z AUTO 20015KT 10SM CLR 30/09 A2991 RMK AO2 SLP119 T03000089
KPRB 092353Z AUTO 20015KT 10SM CLR 32/10 A2990 RMK AO2 SLP116 T03170100 10344 20250 56012
KPRB 092253Z AUTO 23013KT 10SM CLR 33/04 A2991 RMK AO2 SLP117 T03330039
KPRB 092153Z AUTO 22013KT 10SM CLR 34/04 A2992 RMK AO2 SLP122 T03390039
KPRB 092053Z AUTO 24009G16KT 10SM CLR 33/10 A2993 RMK AO2 SLP127 T03330100 58018
KPRB 091953Z AUTO VRB04KT 10SM CLR 31/11 A2996 RMK AO2 SLP135 T03110106
KPRB 091853Z AUTO VRB03KT 10SM CLR 27/11 A2997 RMK AO2 SLP142 T02670111
KPRB 091753Z AUTO VRB04KT 10SM CLR 25/11 A2999 RMK AO2 SLP147 T02500111 10250 20156 58001
KPRB 091653Z AUTO VRB05KT 10SM CLR 22/12 A3000 RMK AO2 SLP151 T02170117
KPRB 091553Z AUTO 32007KT 10SM CLR 19/12 A3000 RMK AO2 SLP150 T01940117
KPRB 091453Z AUTO 32008KT 10SM CLR 17/12 A2999 RMK AO2 SLP149 T01720117 53013
KPRB 091353Z AUTO 31008KT 10SM CLR 16/11 A2998 RMK AO2 SLP145 T01610111
KPRB 091253Z AUTO 31007KT 10SM CLR 16/11 A2996 RMK AO2 SLP138 T01610106
KPRB 091153Z AUTO 30004KT 10SM CLR 16/11 A2995 RMK AO2 SLP135 T01610106 10200 20161 53004
KPRB 091053Z AUTO 29004KT 10SM CLR 17/11 A2995 RMK AO2 SLP131 T01670106
KPRB 090953Z AUTO 00000KT 10SM CLR 17/11 A2994 RMK AO2 SLP129 T01720106
KPRB 090853Z AUTO 30005KT 10SM CLR 18/10 A2994 RMK AO2 SLP130 T01780100 58004
KPRB 090753Z AUTO 31008KT 10SM CLR 19/10 A2996 RMK AO2 SLP136 T01890100 403610150
KPRB 090653Z AUTO 31009KT 10SM CLR 19/10 A2995 RMK AO2 SLP134 T01940100
KPRB 090553Z AUTO 29009KT 10SM CLR 20/10 A2995 RMK AO2 SLP135 T02000100 10328 20200 51019
KPRB 090453Z AUTO 30011KT 10SM CLR 22/09 A2995 RMK AO2 SLP134 T02170094
KPRB 090353Z AUTO 29011KT 10SM CLR 23/09 A2992 RMK AO2 SLP125 T02330089
KPRB 090253Z AUTO 27009KT 10SM CLR 26/10 A2990 RMK AO2 SLP117 T02610100 53012